Time;durP1;ratioP1;P1;durP2;ratioP2;P2;SDS_P1;SDS_P2;PMS_P1;PMS_P2;Temp;Humidity;BMP_temperature;BMP_pressure;BME280_temperature;BME280_humidity;BME280_pressure;Samples;Min_cycle;Max_cycle;Signal;HPM_P1;HPM_P2
2024/01/25 00:01:57;;;;;;;37.67;6.03;;;;;;;-145.18;100.00;46933.88;4994890;28;20038;-68
2024/01/25 00:04:22;;;;;;;26.77;4.80;;;;;;;-145.18;100.00;46937.78;4994848;28;20398;-68
2024/01/25 00:06:48;;;;;;;26.90;3.90;;;;;;;-145.18;100.00;46931.91;4996639;28;20399;-68
2024/01/25 00:09:13;;;;;;;37.47;4.83;;;;;;;-145.18;100.00;46935.81;4976974;28;20038;-68
2024/01/25 00:11:38;;;;;;;34.00;5.77;;;;;;;-145.18;100.00;46937.78;4994660;28;20445;-68
2024/01/25 00:14:04;;;;;;;35.40;5.10;;;;;;;-145.18;100.00;46941.69;4994150;28;20073;-68
2024/01/25 00:16:30;;;;;;;33.57;5.43;;;;;;;-145.18;100.00;46945.59;4994272;28;20042;-68
2024/01/25 00:18:55;;;;;;;25.60;4.63;;;;;;;-145.18;100.00;46943.63;4994396;28;20041;-68
2024/01/25 00:21:20;;;;;;;29.50;4.67;;;;;;;-145.18;100.00;46945.59;4994217;28;20030;-68
2024/01/25 00:23:46;;;;;;;29.77;5.77;;;;;;;-145.18;100.00;46945.59;4994438;28;20038;-68
2024/01/25 00:26:12;;;;;;;38.20;4.67;;;;;;;-145.18;100.00;46949.50;4994558;28;20061;-68
2024/01/25 00:28:38;;;;;;;39.67;4.67;;;;;;;-145.18;100.00;46945.59;4993999;28;20037;-68
2024/01/25 00:31:03;;;;;;;30.37;4.63;;;;;;;-145.18;100.00;46941.69;4994563;28;20268;-67
2024/01/25 00:33:29;;;;;;;39.13;5.43;;;;;;;-145.18;100.00;46949.50;4991737;28;20564;-68
2024/01/25 00:35:55;;;;;;;38.03;4.50;;;;;;;-145.18;100.00;46949.50;4994172;28;20118;-68
2024/01/25 00:38:20;;;;;;;43.07;5.73;;;;;;;-145.18;100.00;46953.41;4994202;28;20045;-67
2024/01/25 00:40:46;;;;;;;27.43;4.30;;;;;;;-145.18;100.00;46957.31;4994214;28;20034;-68
2024/01/25 00:43:12;;;;;;;33.30;4.53;;;;;;;-145.18;100.00;46953.41;4976159;28;20038;-68
2024/01/25 00:45:37;;;;;;;37.50;5.03;;;;;;;-145.18;100.00;46957.31;4992527;28;20033;-68
2024/01/25 00:48:03;;;;;;;42.53;5.90;;;;;;;-145.18;100.00;46957.31;4983585;28;20078;-68
2024/01/25 00:50:29;;;;;;;34.07;3.50;;;;;;;-145.18;100.00;46959.25;4993584;28;20478;-68
2024/01/25 00:52:55;;;;;;;38.60;5.30;;;;;;;-145.18;100.00;46959.25;4993849;28;20022;-68
2024/01/25 00:55:20;;;;;;;38.83;5.00;;;;;;;-145.18;100.00;46959.25;4993699;28;20053;-68
2024/01/25 00:57:46;;;;;;;46.73;5.20;;;;;;;-145.18;100.00;46957.31;4993782;28;20030;-67
2024/01/25 01:00:12;;;;;;;38.47;4.93;;;;;;;-145.18;100.00;46965.13;4993626;28;20423;-66
2024/01/25 01:02:43;;;;;;;35.40;4.97;;;;;;;-145.18;100.00;46967.09;4993389;28;20035;-68
2024/01/25 01:05:10;;;;;;;35.27;5.10;;;;;;;-145.18;100.00;46965.13;4993753;28;20268;-68
2024/01/25 01:07:36;;;;;;;27.80;4.73;;;;;;;-145.18;100.00;46969.03;4993141;28;20271;-67
2024/01/25 01:10:01;;;;;;;44.67;4.37;;;;;;;-145.18;100.00;46967.09;4976404;28;20601;-68
2024/01/25 01:12:26;;;;;;;34.70;4.57;;;;;;;-145.18;100.00;46969.03;4993522;28;20084;-68
2024/01/25 01:14:52;;;;;;;26.73;4.53;;;;;;;-145.18;100.00;46971.00;4993057;28;20406;-68
2024/01/25 01:17:20;;;;;;;44.07;4.73;;;;;;;-145.18;100.00;46969.03;4992463;28;20069;-68
2024/01/25 01:19:45;;;;;;;35.50;5.23;;;;;;;-145.18;100.00;46972.94;4993465;28;20034;-68
2024/01/25 01:22:11;;;;;;;44.13;4.80;;;;;;;-145.18;100.00;46972.94;4993142;28;20822;-68
2024/01/25 01:24:36;;;;;;;29.23;3.87;;;;;;;-145.18;100.00;46974.91;4993197;28;20113;-68
2024/01/25 01:27:02;;;;;;;37.50;4.90;;;;;;;-145.18;100.00;46974.91;4992944;28;20042;-67
2024/01/25 01:29:27;;;;;;;33.90;4.20;;;;;;;-145.18;100.00;46976.84;4993329;28;20034;-68
2024/01/25 01:31:53;;;;;;;34.30;5.23;;;;;;;-145.18;100.00;46971.00;4993129;28;20109;-68
2024/01/25 01:34:18;;;;;;;42.30;5.50;;;;;;;-145.18;100.00;46972.94;4975348;28;20461;-68
2024/01/25 01:36:44;;;;;;;33.30;4.43;;;;;;;-145.18;100.00;46969.03;4974329;28;20037;-68
2024/01/25 01:39:10;;;;;;;37.43;5.43;;;;;;;-145.18;100.00;46967.09;4981623;28;20045;-68
2024/01/25 01:41:35;;;;;;;28.10;4.40;;;;;;;-145.18;100.00;46969.03;4992714;28;20034;-68
2024/01/25 01:44:01;;;;;;;30.10;4.43;;;;;;;-145.18;100.00;46965.13;4993152;28;20042;-68
2024/01/25 01:46:39;;;;;;;28.63;3.93;;;;;;;-145.18;100.00;46976.84;4992052;28;20066;-68
2024/01/25 01:49:08;;;;;;;35.87;4.83;;;;;;;-145.18;100.00;46971.00;4993006;28;20034;-68
2024/01/25 01:51:34;;;;;;;28.43;4.47;;;;;;;-145.18;100.00;46971.00;4992930;28;20625;-68
2024/01/25 01:54:06;;;;;;;31.33;4.13;;;;;;;-145.18;100.00;46971.00;4992800;28;20266;-68
2024/01/25 01:56:31;;;;;;;37.87;5.37;;;;;;;-145.18;100.00;46965.13;4992764;28;20284;-68
2024/01/25 01:59:00;;;;;;;36.50;4.77;;;;;;;-145.18;100.00;46969.03;4975514;28;20350;-68
2024/01/25 02:01:26;;;;;;;36.40;5.03;;;;;;;-145.18;100.00;46971.00;4992440;28;20041;-68
2024/01/25 02:03:52;;;;;;;28.63;4.43;;;;;;;-145.18;100.00;46972.94;4992403;28;20268;-68
2024/01/25 02:06:19;;;;;;;32.53;4.33;;;;;;;-145.18;100.00;46972.94;4992553;28;20022;-67
2024/01/25 02:08:45;;;;;;;26.20;4.10;;;;;;;-145.18;100.00;46976.84;4992635;28;20270;-68
2024/01/25 02:11:14;;;;;;;38.03;4.33;;;;;;;-145.18;100.00;46980.75;4992505;28;20322;-65
2024/01/25 02:13:40;;;;;;;39.53;4.97;;;;;;;-145.18;100.00;46974.91;4992402;28;20301;-65
2024/01/25 02:16:07;;;;;;;38.43;4.80;;;;;;;-145.18;100.00;46984.66;4992056;28;20291;-65
2024/01/25 02:18:33;;;;;;;37.70;4.57;;;;;;;-145.18;100.00;46984.66;4991958;28;20038;-65
2024/01/25 02:20:58;;;;;;;35.33;4.87;;;;;;;-145.18;100.00;46984.66;4993093;28;20743;-66
2024/01/25 02:23:24;;;;;;;47.53;4.63;;;;;;;-145.18;100.00;46992.47;4976511;28;20296;-65
2024/01/25 02:25:49;;;;;;;32.57;4.53;;;;;;;-145.18;100.00;46988.56;4992333;28;20030;-66
2024/01/25 02:28:15;;;;;;;41.33;4.73;;;;;;;-145.18;100.00;46986.63;4993544;28;20528;-65
2024/01/25 02:30:40;;;;;;;44.70;4.73;;;;;;;-145.18;100.00;46990.53;4996328;28;20053;-66
2024/01/25 02:33:06;;;;;;;29.33;4.30;;;;;;;-145.18;100.00;46992.47;4996269;28;20129;-65
2024/01/25 02:35:31;;;;;;;45.10;4.30;;;;;;;-145.18;100.00;46996.38;4995939;28;20492;-66
2024/01/25 02:37:56;;;;;;;27.50;4.23;;;;;;;-145.18;100.00;46990.53;4995172;28;20043;-65
2024/01/25 02:40:22;;;;;;;47.20;5.20;;;;;;;-145.18;100.00;46996.38;4996223;28;20058;-65
2024/01/25 02:42:47;;;;;;;36.80;6.00;;;;;;;-145.18;100.00;46994.44;4961926;28;20034;-65
2024/01/25 02:45:13;;;;;;;37.93;4.53;;;;;;;-145.18;100.00;47002.25;4996126;28;20976;-67
2024/01/25 02:47:38;;;;;;;36.43;4.10;;;;;;;-145.18;100.00;46998.34;4996260;28;20088;-65
2024/01/25 02:50:04;;;;;;;38.27;5.33;;;;;;;-145.18;100.00;46996.38;4996034;28;20042;-66
2024/01/25 02:52:29;;;;;;;25.67;3.77;;;;;;;-145.18;100.00;46994.44;4995832;28;20034;-65
2024/01/25 02:54:55;;;;;;;33.53;4.07;;;;;;;-145.18;100.00;46996.38;4978409;28;20112;-65
2024/01/25 02:57:20;;;;;;;25.03;3.67;;;;;;;-145.18;100.00;46998.34;4995805;28;20045;-66
2024/01/25 02:59:46;;;;;;;35.40;4.07;;;;;;;-145.18;100.00;46992.47;4977902;28;20542;-65
2024/01/25 03:02:11;;;;;;;49.97;4.80;;;;;;;-145.18;100.00;46994.44;4995856;28;20038;-65
2024/01/25 03:04:37;;;;;;;31.53;3.90;;;;;;;-145.18;100.00;47000.28;4995351;28;20268;-64
2024/01/25 03:07:02;;;;;;;36.90;4.67;;;;;;;-145.18;100.00;46992.47;4995675;28;20048;-65
2024/01/25 03:09:28;;;;;;;43.10;5.43;;;;;;;-145.18;100.00;46998.34;4995944;28;20049;-66
2024/01/25 03:11:53;;;;;;;39.90;4.97;;;;;;;-145.18;100.00;47000.28;4995455;28;20503;-65
2024/01/25 03:14:19;;;;;;;35.70;5.40;;;;;;;-145.18;100.00;46998.34;4994047;28;20033;-66
2024/01/25 03:16:44;;;;;;;33.70;4.93;;;;;;;-145.18;100.00;46998.34;4995307;28;20157;-65
2024/01/25 03:19:10;;;;;;;30.23;4.70;;;;;;;-145.18;100.00;46998.34;4995408;28;20034;-66
2024/01/25 03:21:36;;;;;;;39.10;5.13;;;;;;;-145.18;100.00;46998.34;4995813;28;20037;-68
2024/01/25 03:24:01;;;;;;;68.67;7.27;;;;;;;-145.18;100.00;46998.34;4993709;28;20664;-68
2024/01/25 03:26:28;;;;;;;34.53;4.70;;;;;;;-145.18;100.00;46996.38;4990566;28;20047;-68
2024/01/25 03:28:53;;;;;;;33.77;5.30;;;;;;;-145.18;100.00;46992.47;4993912;28;20038;-68
2024/01/25 03:31:18;;;;;;;40.17;4.33;;;;;;;-145.18;100.00;46996.38;4977679;28;20267;-68
2024/01/25 03:33:44;;;;;;;24.60;3.93;;;;;;;-145.18;100.00;46992.47;4994594;28;20096;-68
2024/01/25 03:36:09;;;;;;;32.90;5.20;;;;;;;-145.18;100.00;46992.47;4977991;28;20081;-68
2024/01/25 03:38:35;;;;;;;23.20;3.83;;;;;;;-145.18;100.00;46990.53;4994975;28;20037;-68
2024/01/25 03:41:00;;;;;;;28.63;4.20;;;;;;;-145.18;100.00;46984.66;4994095;28;20084;-68
2024/01/25 03:43:26;;;;;;;36.50;4.70;;;;;;;-145.18;100.00;46990.53;4994588;28;20379;-68
2024/01/25 03:45:51;;;;;;;32.80;4.57;;;;;;;-145.18;100.00;46988.56;4994830;28;20030;-68
2024/01/25 03:48:17;;;;;;;38.17;6.07;;;;;;;-145.18;100.00;46990.53;4993337;28;20104;-68
2024/01/25 03:50:43;;;;;;;43.20;5.73;;;;;;;-145.18;100.00;46990.53;4994305;28;20105;-68
2024/01/25 03:53:08;;;;;;;39.57;4.77;;;;;;;-145.18;100.00;46990.53;4994578;28;20029;-68
2024/01/25 03:55:34;;;;;;;34.13;4.40;;;;;;;-145.18;100.00;46990.53;4977187;28;20041;-68
2024/01/25 03:57:59;;;;;;;34.43;5.20;;;;;;;-145.18;100.00;46994.44;4994576;28;20030;-68
2024/01/25 04:00:25;;;;;;;45.73;6.30;;;;;;;-145.18;100.00;46994.44;4977282;28;20026;-68
2024/01/25 04:02:50;;;;;;;29.30;4.33;;;;;;;-145.18;100.00;46998.34;4994790;28;20109;-68
2024/01/25 04:05:16;;;;;;;49.20;5.30;;;;;;;-145.18;100.00;46994.44;4977012;28;20026;-68
2024/01/25 04:07:41;;;;;;;42.83;5.50;;;;;;;-145.18;100.00;46988.56;4994224;28;20398;-68
2024/01/25 04:10:07;;;;;;;33.10;4.23;;;;;;;-145.18;100.00;46994.44;4994549;28;20034;-68
2024/01/25 04:12:33;;;;;;;29.67;5.00;;;;;;;-145.18;100.00;46998.34;4994508;28;20026;-68
2024/01/25 04:14:58;;;;;;;34.23;3.87;;;;;;;-145.18;100.00;46990.53;4994408;28;20066;-68
2024/01/25 04:17:24;;;;;;;41.70;4.73;;;;;;;-145.18;100.00;46990.53;4994196;28;20033;-68
2024/01/25 04:19:49;;;;;;;37.57;4.53;;;;;;;-145.18;100.00;46992.47;4994496;28;20060;-68
2024/01/25 04:22:14;;;;;;;35.80;4.80;;;;;;;-145.18;100.00;46998.34;4993944;28;20039;-69
2024/01/25 04:24:40;;;;;;;41.67;5.93;;;;;;;-145.18;100.00;46992.47;4994036;28;20076;-68
2024/01/25 04:27:05;;;;;;;33.10;5.13;;;;;;;-145.18;100.00;46998.34;4994197;28;20034;-68
2024/01/25 04:29:31;;;;;;;40.17;5.40;;;;;;;-145.18;100.00;47000.28;4994475;28;20084;-68
2024/01/25 04:31:56;;;;;;;35.33;5.43;;;;;;;-145.18;100.00;47000.28;4993878;28;20084;-66
2024/01/25 04:34:22;;;;;;;39.27;4.37;;;;;;;-145.18;100.00;47002.25;4959303;28;20058;-66
2024/01/25 04:36:47;;;;;;;37.83;4.90;;;;;;;-145.18;100.00;47000.28;4992600;28;20398;-66
2024/01/25 04:39:13;;;;;;;32.80;4.83;;;;;;;-145.18;100.00;47004.19;4987110;28;20062;-65
2024/01/25 04:41:38;;;;;;;34.63;4.50;;;;;;;-145.18;100.00;47000.28;4987243;28;20050;-66
2024/01/25 04:44:04;;;;;;;48.23;4.63;;;;;;;-145.18;100.00;47004.19;4994287;28;20061;-66
2024/01/25 04:46:35;;;;;;;41.97;5.57;;;;;;;-145.18;100.00;47002.25;4963740;28;20027;-66
2024/01/25 04:49:01;;;;;;;41.93;4.23;;;;;;;-145.18;100.00;47004.19;4993802;28;20264;-66
2024/01/25 04:51:26;;;;;;;33.83;5.87;;;;;;;-145.18;100.00;47000.28;4978178;28;20279;-66
2024/01/25 04:53:52;;;;;;;42.93;4.67;;;;;;;-145.18;100.00;47000.28;4974736;28;20053;-66
2024/01/25 04:56:17;;;;;;;31.63;5.20;;;;;;;-145.18;100.00;47000.28;4989636;28;20112;-66
2024/01/25 04:58:42;;;;;;;41.23;6.13;;;;;;;-145.18;100.00;47000.28;4959760;28;20495;-66
2024/01/25 05:01:08;;;;;;;37.30;5.23;;;;;;;-145.18;100.00;46998.34;4993788;28;20043;-66
2024/01/25 05:03:34;;;;;;;30.43;4.60;;;;;;;-145.18;100.00;47000.28;4975725;28;20726;-66
2024/01/25 05:05:59;;;;;;;51.33;5.40;;;;;;;-145.18;100.00;47000.28;4992960;28;20050;-66
2024/01/25 05:08:24;;;;;;;27.33;4.37;;;;;;;-145.18;100.00;46998.34;4993006;28;20371;-66
2024/01/25 05:10:50;;;;;;;27.60;4.70;;;;;;;-145.18;100.00;46996.38;4958352;28;20031;-66
2024/01/25 05:13:15;;;;;;;39.00;5.87;;;;;;;-145.18;100.00;46996.38;4992922;28;20030;-66
2024/01/25 05:15:41;;;;;;;37.47;4.50;;;;;;;-145.18;100.00;46994.44;4991583;28;20027;-66
2024/01/25 05:18:06;;;;;;;39.77;5.03;;;;;;;-145.18;100.00;46998.34;4992323;28;20030;-66
2024/01/25 05:20:32;;;;;;;35.57;4.90;;;;;;;-145.18;100.00;46996.38;4991288;28;20019;-66
2024/01/25 05:23:02;;;;;;;28.73;4.53;;;;;;;-145.18;100.00;46994.44;4991894;28;20121;-66
2024/01/25 05:25:28;;;;;;;40.63;5.10;;;;;;;-145.18;100.00;46992.47;4991091;28;20030;-66
2024/01/25 05:27:55;;;;;;;45.40;6.27;;;;;;;-145.18;100.00;47000.28;4992184;28;20264;-65
2024/01/25 05:30:21;;;;;;;31.63;5.50;;;;;;;-145.18;100.00;47000.28;4990886;28;20256;-66
2024/01/25 05:32:48;;;;;;;36.33;5.90;;;;;;;-145.18;100.00;46994.44;4991623;28;20292;-66
2024/01/25 05:35:14;;;;;;;30.40;5.17;;;;;;;-145.18;100.00;46994.44;4993010;28;20278;-66
2024/01/25 05:37:39;;;;;;;36.23;4.87;;;;;;;-145.18;100.00;46988.56;4992696;28;20795;-66
2024/01/25 05:40:05;;;;;;;47.53;7.57;;;;;;;-145.18;100.00;46992.47;4975213;28;20030;-66
2024/01/25 05:42:32;;;;;;;35.27;6.60;;;;;;;-145.18;100.00;46996.38;4992892;28;20030;-66
2024/01/25 05:44:57;;;;;;;48.17;7.37;;;;;;;-145.18;100.00;46996.38;4992524;28;20744;-66
2024/01/25 05:47:23;;;;;;;43.67;6.83;;;;;;;-145.18;100.00;46998.34;4992937;28;20270;-65
2024/01/25 05:49:48;;;;;;;44.87;7.20;;;;;;;-145.18;100.00;46996.38;4992325;28;20034;-66
2024/01/25 05:52:14;;;;;;;46.50;5.73;;;;;;;-145.18;100.00;46992.47;4975420;28;20022;-67
2024/01/25 05:54:39;;;;;;;44.43;5.37;;;;;;;-145.18;100.00;46996.38;4992754;28;20026;-66
2024/01/25 05:57:05;;;;;;;41.17;5.70;;;;;;;-145.18;100.00;46994.44;4992443;28;20041;-66
2024/01/25 05:59:30;;;;;;;33.13;6.20;;;;;;;-145.18;100.00;46996.38;4992612;28;20038;-66
2024/01/25 06:01:55;;;;;;;25.73;5.13;;;;;;;-145.18;100.00;46994.44;4992706;28;20042;-66
2024/01/25 06:04:21;;;;;;;26.20;4.57;;;;;;;-145.18;100.00;46990.53;4991999;28;21309;-66
2024/01/25 06:06:46;;;;;;;31.17;4.70;;;;;;;-145.18;100.00;46992.47;4992218;28;20081;-66
2024/01/25 06:09:12;;;;;;;32.57;4.47;;;;;;;-145.18;100.00;46990.53;4991962;28;20030;-66
2024/01/25 06:11:37;;;;;;;31.27;4.80;;;;;;;-145.18;100.00;46992.47;4991573;28;20037;-65
2024/01/25 06:14:05;;;;;;;32.27;5.30;;;;;;;-145.18;100.00;46998.34;4993087;28;20113;-66
2024/01/25 06:16:31;;;;;;;28.73;5.47;;;;;;;-145.18;100.00;46996.38;4992185;28;20061;-66
2024/01/25 06:18:56;;;;;;;47.03;5.80;;;;;;;-145.18;100.00;46998.34;4991956;28;21038;-66
2024/01/25 06:21:21;;;;;;;37.33;5.73;;;;;;;-145.18;100.00;47000.28;4992307;28;20026;-66
2024/01/25 06:23:47;;;;;;;30.87;5.30;;;;;;;-145.18;100.00;47010.06;4991680;28;20023;-66
2024/01/25 06:26:12;;;;;;;43.63;5.93;;;;;;;-145.18;100.00;47012.00;4991289;28;20038;-66
2024/01/25 06:28:38;;;;;;;50.27;6.10;;;;;;;-145.18;100.00;47008.09;4986474;28;20058;-66
2024/01/25 06:31:03;;;;;;;36.20;4.73;;;;;;;-145.18;100.00;47015.91;4958969;28;20035;-66
2024/01/25 06:33:29;;;;;;;44.07;6.30;;;;;;;-145.18;100.00;47015.91;4991877;28;20054;-66
2024/01/25 06:35:55;;;;;;;35.93;5.80;;;;;;;-145.18;100.00;47013.97;4992177;28;20163;-66
2024/01/25 06:38:20;;;;;;;52.60;6.10;;;;;;;-145.18;100.00;47012.00;4992276;28;20054;-66
2024/01/25 06:40:46;;;;;;;40.77;7.20;;;;;;;-145.18;100.00;47012.00;4991662;28;20725;-66
2024/01/25 06:43:11;;;;;;;42.43;6.87;;;;;;;-145.18;100.00;47015.91;4991914;28;20093;-66
2024/01/25 06:45:39;;;;;;;41.30;7.03;;;;;;;-145.18;100.00;47010.06;4991906;28;20029;-66
2024/01/25 06:48:06;;;;;;;30.33;5.97;;;;;;;-145.18;100.00;47008.09;4990567;28;20379;-67
2024/01/25 06:50:31;;;;;;;36.77;4.63;;;;;;;-145.18;100.00;47004.19;4973143;28;20279;-69
2024/01/25 06:52:57;;;;;;;36.47;4.90;;;;;;;-145.18;100.00;47002.25;4973842;28;20272;-69
2024/01/25 06:55:22;;;;;;;34.87;4.43;;;;;;;-145.18;100.00;47000.28;4992336;28;20023;-71
2024/01/25 06:57:48;;;;;;;31.37;4.73;;;;;;;-145.18;100.00;46998.34;4991911;28;20040;-69
2024/01/25 07:00:15;;;;;;;30.00;5.17;;;;;;;-145.18;100.00;46990.53;4994161;28;20027;-70
2024/01/25 07:02:42;;;;;;;33.63;5.00;;;;;;;-145.18;100.00;46998.34;4992579;28;20026;-69
2024/01/25 07:05:07;;;;;;;32.30;5.30;;;;;;;-145.18;100.00;47002.25;4991501;28;20279;-69
2024/01/25 07:07:33;;;;;;;25.00;5.00;;;;;;;-145.18;100.00;46996.38;4990870;28;20271;-69
2024/01/25 07:09:59;;;;;;;41.43;5.13;;;;;;;-145.18;100.00;47002.25;4991835;28;20548;-68
2024/01/25 07:12:24;;;;;;;35.67;5.53;;;;;;;-145.18;100.00;47000.28;4991186;28;20030;-68
2024/01/25 07:14:49;;;;;;;54.27;6.50;;;;;;;-145.18;100.00;46996.38;4993815;28;20535;-69
2024/01/25 07:17:15;;;;;;;31.67;5.67;;;;;;;-145.18;100.00;47002.25;4978153;28;20031;-69
2024/01/25 07:19:40;;;;;;;39.47;5.23;;;;;;;-145.18;100.00;46998.34;4995502;28;20491;-69
2024/01/25 07:22:05;;;;;;;35.40;5.37;;;;;;;-145.18;100.00;47000.28;4995619;28;20035;-69
2024/01/25 07:24:31;;;;;;;44.77;5.50;;;;;;;-145.18;100.00;47002.25;4995109;28;20486;-68
2024/01/25 07:26:57;;;;;;;27.33;6.47;;;;;;;-145.18;100.00;46998.34;4995635;28;20030;-69
2024/01/25 07:29:22;;;;;;;34.17;5.53;;;;;;;-145.18;100.00;47000.28;4995526;28;20066;-69
2024/01/25 07:31:48;;;;;;;49.50;6.53;;;;;;;-145.18;100.00;47000.28;4977437;28;20548;-69
2024/01/25 07:34:13;;;;;;;43.80;5.77;;;;;;;-145.18;100.00;47004.19;4995261;28;20054;-69
2024/01/25 07:36:38;;;;;;;38.97;6.07;;;;;;;-145.18;100.00;47004.19;4995314;28;20100;-69
2024/01/25 07:39:04;;;;;;;51.37;6.47;;;;;;;-145.18;100.00;47008.09;4977741;28;20192;-69
2024/01/25 07:41:29;;;;;;;32.30;7.40;;;;;;;-145.18;100.00;47008.09;4995070;28;20088;-69
2024/01/25 07:43:55;;;;;;;49.13;7.50;;;;;;;-145.18;100.00;47004.19;4995034;28;20499;-69
2024/01/25 07:46:21;;;;;;;55.10;7.23;;;;;;;-145.18;100.00;47000.28;4995030;28;20049;-69
2024/01/25 07:48:47;;;;;;;38.77;7.47;;;;;;;-145.18;100.00;47002.25;4995044;28;20041;-69
2024/01/25 07:51:13;;;;;;;38.90;6.10;;;;;;;-145.18;100.00;47000.28;4977220;28;20822;-69
2024/01/25 07:53:39;;;;;;;36.73;6.80;;;;;;;-145.18;100.00;47004.19;4994839;28;20272;-69
2024/01/25 07:56:11;;;;;;;36.47;6.57;;;;;;;-145.18;100.00;47000.28;4995083;28;20034;-69
2024/01/25 07:58:37;;;;;;;33.93;7.33;;;;;;;-145.18;100.00;46996.38;4994827;28;20260;-70
2024/01/25 08:01:06;;;;;;;45.33;5.90;;;;;;;-145.18;100.00;47000.28;4994843;28;20264;-69
2024/01/25 08:03:32;;;;;;;33.67;6.40;;;;;;;-145.18;100.00;46998.34;4988602;28;20517;-69
2024/01/25 08:06:02;;;;;;;44.00;7.57;;;;;;;-145.18;100.00;46998.34;4994823;28;20259;-69
2024/01/25 08:08:28;;;;;;;37.97;9.47;;;;;;;-145.18;100.00;46992.47;4994735;28;20263;-69
2024/01/25 08:10:53;;;;;;;54.63;8.23;;;;;;;-145.18;100.00;46996.38;4994741;28;20264;-69
2024/01/25 08:13:19;;;;;;;55.03;9.77;;;;;;;-145.18;100.00;46994.44;4977448;28;20121;-69
2024/01/25 08:15:45;;;;;;;40.53;8.07;;;;;;;-145.18;100.00;46992.47;4994395;28;20026;-69
2024/01/25 08:18:10;;;;;;;45.97;7.67;;;;;;;-145.18;100.00;46984.66;4994508;28;20030;-69
2024/01/25 08:20:37;;;;;;;36.33;7.77;;;;;;;-145.18;100.00;46990.53;4994228;28;20030;-70
2024/01/25 08:23:03;;;;;;;56.10;7.70;;;;;;;-145.18;100.00;46988.56;4994643;28;20029;-69
2024/01/25 08:25:29;;;;;;;39.07;7.77;;;;;;;-145.18;100.00;46984.66;4976152;28;20768;-69
2024/01/25 08:27:54;;;;;;;51.27;7.27;;;;;;;-145.18;100.00;46984.66;4960872;28;20038;-69
2024/01/25 08:30:19;;;;;;;35.53;6.63;;;;;;;-145.18;100.00;46980.75;4993894;28;20033;-69
2024/01/25 08:32:45;;;;;;;44.87;6.53;;;;;;;-145.18;100.00;46976.84;4975777;28;20039;-69
2024/01/25 08:35:10;;;;;;;34.33;6.50;;;;;;;-145.18;100.00;46974.91;4994162;28;20552;-70
2024/01/25 08:37:37;;;;;;;38.90;6.30;;;;;;;-145.18;100.00;46976.84;4976767;28;20034;-70
2024/01/25 08:40:05;;;;;;;37.83;7.40;;;;;;;-145.18;100.00;46972.94;4993857;28;20542;-69
2024/01/25 08:42:31;;;;;;;40.13;7.57;;;;;;;-145.18;100.00;46971.00;4993967;28;20783;-69
2024/01/25 08:44:57;;;;;;;30.80;6.83;;;;;;;-145.18;100.00;46969.03;4994015;28;20267;-69
2024/01/25 08:47:22;;;;;;;42.40;7.20;;;;;;;-145.18;100.00;46972.94;4994062;28;20431;-69
2024/01/25 08:49:47;;;;;;;39.53;8.80;;;;;;;-145.18;100.00;46972.94;4993808;28;20101;-69
2024/01/25 08:52:13;;;;;;;41.00;7.83;;;;;;;-145.18;100.00;46969.03;4993823;28;20093;-70
2024/01/25 08:54:38;;;;;;;61.57;8.43;;;;;;;-145.18;100.00;46965.13;4975906;28;20069;-70
2024/01/25 08:57:05;;;;;;;35.60;7.80;;;;;;;-145.18;100.00;46969.03;4993881;28;20113;-70
2024/01/25 08:59:32;;;;;;;44.83;8.70;;;;;;;-145.18;100.00;46963.19;4993827;28;20114;-70
2024/01/25 09:01:58;;;;;;;33.20;8.23;;;;;;;-145.18;100.00;46959.25;4993592;28;20330;-69
2024/01/25 09:04:23;;;;;;;41.03;8.40;;;;;;;-145.18;100.00;46961.22;4993475;28;20260;-70
2024/01/25 09:06:49;;;;;;;41.03;8.47;;;;;;;-145.18;100.00;46955.34;4993803;28;20334;-69
2024/01/25 09:09:14;;;;;;;35.27;7.17;;;;;;;-145.18;100.00;46953.41;4993485;28;20113;-69
2024/01/25 09:11:40;;;;;;;40.80;6.90;;;;;;;-145.18;100.00;46959.25;4993545;28;20102;-66
2024/01/25 09:14:05;;;;;;;45.30;8.33;;;;;;;-145.18;100.00;46953.41;4993242;28;20019;-66
2024/01/25 09:16:30;;;;;;;38.17;7.57;;;;;;;-145.18;100.00;46951.44;4993571;28;20023;-67
2024/01/25 09:18:56;;;;;;;44.17;8.70;;;;;;;-145.18;100.00;46951.44;4992929;28;20037;-66
2024/01/25 09:21:21;;;;;;;34.93;8.07;;;;;;;-145.18;100.00;46953.41;4994196;28;20038;-66
2024/01/25 09:23:46;;;;;;;37.73;8.23;;;;;;;-145.18;100.00;46957.31;4994294;28;20383;-66
2024/01/25 09:26:12;;;;;;;31.00;6.83;;;;;;;-145.18;100.00;46953.41;4993651;28;20113;-66
2024/01/25 09:28:38;;;;;;;34.87;6.97;;;;;;;-145.18;100.00;46951.44;4992764;28;20045;-66
2024/01/25 09:31:03;;;;;;;46.60;7.80;;;;;;;-145.18;100.00;46953.41;4993208;28;20117;-67
2024/01/25 09:33:29;;;;;;;60.17;8.43;;;;;;;-145.18;100.00;46949.50;4992547;28;20053;-67
2024/01/25 09:35:55;;;;;;;41.47;8.00;;;;;;;-145.18;100.00;46949.50;4992906;28;20704;-66
2024/01/25 09:38:21;;;;;;;36.87;8.00;;;;;;;-145.18;100.00;46955.34;4992202;28;20272;-67
2024/01/25 09:40:48;;;;;;;44.70;8.67;;;;;;;-145.18;100.00;46953.41;4993166;28;20453;-66
2024/01/25 09:43:14;;;;;;;52.87;10.80;;;;;;;-145.18;100.00;46953.41;4975707;28;20283;-66
2024/01/25 09:45:41;;;;;;;49.80;9.10;;;;;;;-145.18;100.00;46953.41;4975052;28;20263;-67
2024/01/25 09:48:07;;;;;;;47.60;8.60;;;;;;;-145.18;100.00;46957.31;4992704;28;20054;-66
2024/01/25 09:50:33;;;;;;;37.67;8.33;;;;;;;-145.18;100.00;46957.31;4992737;28;20292;-66
2024/01/25 09:53:00;;;;;;;42.83;9.70;;;;;;;-145.18;100.00;46955.34;4992829;28;20113;-66
2024/01/25 09:55:26;;;;;;;54.73;10.87;;;;;;;-145.18;100.00;46953.41;4975195;28;20689;-67
2024/01/25 09:57:58;;;;;;;54.17;10.70;;;;;;;-145.18;100.00;46957.31;4992662;28;20598;-67
2024/01/25 10:00:24;;;;;;;35.83;10.90;;;;;;;-145.18;100.00;46955.34;4992584;28;20306;-67
2024/01/25 10:02:50;;;;;;;47.43;11.63;;;;;;;-145.18;100.00;46957.31;4992741;28;20284;-67
2024/01/25 10:05:17;;;;;;;50.57;11.60;;;;;;;-145.18;100.00;46955.34;4992767;28;20026;-67
2024/01/25 10:07:44;;;;;;;54.07;12.23;;;;;;;-145.18;100.00;46953.41;4992369;28;20263;-67
2024/01/25 10:10:11;;;;;;;57.43;13.93;;;;;;;-145.18;100.00;46955.34;4992432;28;20295;-67
2024/01/25 10:12:41;;;;;;;55.50;12.53;;;;;;;-145.18;100.00;46955.34;4992175;28;20763;-67
2024/01/25 10:15:07;;;;;;;47.17;10.97;;;;;;;-145.18;100.00;46957.31;4992785;28;20292;-67
2024/01/25 10:17:33;;;;;;;64.33;14.13;;;;;;;-145.18;100.00;46957.31;4992485;28;20815;-67
2024/01/25 10:19:58;;;;;;;56.17;12.43;;;;;;;-145.18;100.00;46957.31;4992122;28;20026;-67
2024/01/25 10:22:24;;;;;;;52.03;11.77;;;;;;;-145.18;100.00;46959.25;4992693;28;20057;-70
2024/01/25 10:24:56;;;;;;;60.57;12.17;;;;;;;-145.18;100.00;46959.25;4992617;28;20035;-70
2024/01/25 10:27:22;;;;;;;58.50;13.10;;;;;;;-145.18;100.00;46955.34;4992346;28;20022;-70
2024/01/25 10:29:50;;;;;;;57.10;12.27;;;;;;;-145.18;100.00;46959.25;4992590;28;20262;-71
2024/01/25 10:32:15;;;;;;;51.77;13.83;;;;;;;-145.18;100.00;46957.31;4992033;28;20748;-70
2024/01/25 10:34:43;;;;;;;53.70;12.43;;;;;;;-145.18;100.00;46961.22;4992316;28;20287;-70
2024/01/25 10:37:08;;;;;;;52.77;12.40;;;;;;;-145.18;100.00;46957.31;4992412;28;20029;-70
2024/01/25 10:39:34;;;;;;;63.97;13.77;;;;;;;-145.18;100.00;46959.25;4992402;28;20351;-70
2024/01/25 10:42:00;;;;;;;62.27;13.80;;;;;;;-145.18;100.00;46953.41;4992372;28;20026;-71
2024/01/25 10:44:26;;;;;;;59.47;13.33;;;;;;;-145.18;100.00;46959.25;4992047;28;20263;-71
2024/01/25 10:46:54;;;;;;;59.13;13.57;;;;;;;-145.18;100.00;46957.31;4991919;28;20318;-70
2024/01/25 10:49:19;;;;;;;73.10;14.03;;;;;;;-145.18;100.00;46959.25;4993963;28;20026;-71
2024/01/25 10:51:46;;;;;;;53.10;13.50;;;;;;;-145.18;100.00;46957.31;4996090;28;20268;-71
2024/01/25 10:54:14;;;;;;;47.43;13.97;;;;;;;-145.18;100.00;46961.22;4996125;28;20042;-71
2024/01/25 10:56:41;;;;;;;55.87;14.00;;;;;;;-145.18;100.00;46959.25;4995682;28;20297;-71